sensor_id;sensor_type;location;lat;lon;timestamp;pressure;altitude;pressure_sealevel;temperature;humidity
69836;BME280;57132;51.972;4.450;2022-12-24T00:01:05;100531.03;;;8.41;100.00
69836;BME280;57132;51.972;4.450;2022-12-24T00:03:31;100533.91;;;8.37;100.00
69836;BME280;57132;51.972;4.450;2022-12-24T00:05:57;100534.19;;;8.33;100.00
69836;BME280;57132;51.972;4.450;2022-12-24T00:08:23;100522.78;;;8.31;100.00
69836;BME280;57132;51.972;4.450;2022-12-24T00:10:51;100526.72;;;8.25;100.00
69836;BME280;57132;51.972;4.450;2022-12-24T00:13:17;100529.47;;;8.24;100.00
69836;BME280;57132;51.972;4.450;2022-12-24T00:15:43;100539.22;;;8.23;100.00
69836;BME280;57132;51.972;4.450;2022-12-24T00:18:08;100550.19;;;8.19;100.00
69836;BME280;57132;51.972;4.450;2022-12-24T00:20:34;100532.53;;;8.18;100.00
69836;BME280;57132;51.972;4.450;2022-12-24T00:22:59;100548.66;;;8.14;100.00
69836;BME280;57132;51.972;4.450;2022-12-24T00:25:24;100534.72;;;8.11;100.00
69836;BME280;57132;51.972;4.450;2022-12-24T00:27:50;100554.28;;;8.10;100.00
69836;BME280;57132;51.972;4.450;2022-12-24T00:30:15;100552.91;;;8.04;100.00
69836;BME280;57132;51.972;4.450;2022-12-24T00:32:40;100549.59;;;8.01;100.00
69836;BME280;57132;51.972;4.450;2022-12-24T00:35:06;100554.25;;;7.97;100.00
69836;BME280;57132;51.972;4.450;2022-12-24T00:37:31;100560.72;;;7.93;100.00
69836;BME280;57132;51.972;4.450;2022-12-24T00:39:57;100564.41;;;7.91;100.00
69836;BME280;57132;51.972;4.450;2022-12-24T00:42:22;100570.69;;;7.89;100.00
69836;BME280;57132;51.972;4.450;2022-12-24T00:44:47;100580.34;;;7.91;100.00
69836;BME280;57132;51.972;4.450;2022-12-24T00:47:13;100576.72;;;7.92;100.00
69836;BME280;57132;51.972;4.450;2022-12-24T00:49:38;100575.69;;;7.94;100.00
69836;BME280;57132;51.972;4.450;2022-12-24T00:52:03;100586.31;;;7.94;100.00
69836;BME280;57132;51.972;4.450;2022-12-24T00:54:29;100585.38;;;7.95;100.00
69836;BME280;57132;51.972;4.450;2022-12-24T00:56:54;100588.03;;;7.95;100.00
69836;BME280;57132;51.972;4.450;2022-12-24T00:59:19;100582.63;;;7.97;100.00
69836;BME280;57132;51.972;4.450;2022-12-24T01:01:45;100590.13;;;7.90;100.00
69836;BME280;57132;51.972;4.450;2022-12-24T01:04:10;100609.03;;;7.85;100.00
69836;BME280;57132;51.972;4.450;2022-12-24T01:06:54;100598.59;;;7.82;100.00
69836;BME280;57132;51.972;4.450;2022-12-24T01:09:21;100604.94;;;7.80;100.00
69836;BME280;57132;51.972;4.450;2022-12-24T01:11:46;100605.44;;;7.72;100.00
69836;BME280;57132;51.972;4.450;2022-12-24T01:14:12;100609.31;;;7.67;100.00
69836;BME280;57132;51.972;4.450;2022-12-24T01:16:37;100612.16;;;7.63;100.00
69836;BME280;57132;51.972;4.450;2022-12-24T01:19:03;100619.28;;;7.63;100.00
69836;BME280;57132;51.972;4.450;2022-12-24T01:21:28;100619.28;;;7.63;100.00
69836;BME280;57132;51.972;4.450;2022-12-24T01:23:53;100625.56;;;7.62;100.00
69836;BME280;57132;51.972;4.450;2022-12-24T01:26:19;100622.03;;;7.61;100.00
69836;BME280;57132;51.972;4.450;2022-12-24T01:28:45;100626.41;;;7.62;100.00
69836;BME280;57132;51.972;4.450;2022-12-24T01:31:12;100618.44;;;7.62;100.00
69836;BME280;57132;51.972;4.450;2022-12-24T01:33:38;100621.56;;;7.55;100.00
69836;BME280;57132;51.972;4.450;2022-12-24T01:36:03;100627.06;;;7.52;100.00
69836;BME280;57132;51.972;4.450;2022-12-24T01:38:29;100633.25;;;7.52;100.00
69836;BME280;57132;51.972;4.450;2022-12-24T01:40:54;100638.75;;;7.49;100.00
69836;BME280;57132;51.972;4.450;2022-12-24T01:43:42;100640.63;;;7.47;100.00
69836;BME280;57132;51.972;4.450;2022-12-24T01:46:15;100645.41;;;7.56;100.00
69836;BME280;57132;51.972;4.450;2022-12-24T01:48:46;100645.19;;;7.59;100.00
69836;BME280;57132;51.972;4.450;2022-12-24T01:53:46;100650.63;;;7.72;100.00
69836;BME280;57132;51.972;4.450;2022-12-24T01:56:14;100661.81;;;7.77;100.00
69836;BME280;57132;51.972;4.450;2022-12-24T01:58:42;100661.63;;;7.80;100.00
69836;BME280;57132;51.972;4.450;2022-12-24T02:01:10;100656.56;;;7.76;100.00
69836;BME280;57132;51.972;4.450;2022-12-24T02:03:35;100655.94;;;7.72;100.00
69836;BME280;57132;51.972;4.450;2022-12-24T02:06:01;100662.56;;;7.65;100.00
69836;BME280;57132;51.972;4.450;2022-12-24T02:08:27;100662.63;;;7.63;100.00
69836;BME280;57132;51.972;4.450;2022-12-24T02:11:09;100673.84;;;7.69;100.00
69836;BME280;57132;51.972;4.450;2022-12-24T02:13:36;100671.75;;;7.74;100.00
69836;BME280;57132;51.972;4.450;2022-12-24T02:16:13;100673.28;;;7.78;100.00
69836;BME280;57132;51.972;4.450;2022-12-24T02:27:28;100684.75;;;8.07;100.00
69836;BME280;57132;51.972;4.450;2022-12-24T02:30:32;100681.72;;;8.13;100.00
69836;BME280;57132;51.972;4.450;2022-12-24T02:35:41;100685.78;;;8.19;100.00
69836;BME280;57132;51.972;4.450;2022-12-24T02:38:27;100682.75;;;8.25;100.00
69836;BME280;57132;51.972;4.450;2022-12-24T02:41:10;100689.66;;;8.27;100.00
69836;BME280;57132;51.972;4.450;2022-12-24T02:43:41;100686.13;;;8.27;100.00
69836;BME280;57132;51.972;4.450;2022-12-24T02:46:15;100687.94;;;8.26;100.00
69836;BME280;57132;51.972;4.450;2022-12-24T02:48:43;100695.19;;;8.24;100.00
69836;BME280;57132;51.972;4.450;2022-12-24T02:51:10;100690.72;;;8.25;100.00
69836;BME280;57132;51.972;4.450;2022-12-24T02:53:36;100700.94;;;8.31;100.00
69836;BME280;57132;51.972;4.450;2022-12-24T02:59:40;100708.66;;;8.21;100.00
69836;BME280;57132;51.972;4.450;2022-12-24T03:05:28;100711.97;;;8.25;100.00
69836;BME280;57132;51.972;4.450;2022-12-24T03:08:20;100705.03;;;8.22;100.00
69836;BME280;57132;51.972;4.450;2022-12-24T03:11:16;100713.88;;;8.23;100.00
69836;BME280;57132;51.972;4.450;2022-12-24T03:13:42;100718.16;;;8.25;100.00
69836;BME280;57132;51.972;4.450;2022-12-24T03:16:22;100730.41;;;8.28;100.00
69836;BME280;57132;51.972;4.450;2022-12-24T03:18:49;100726.69;;;8.30;100.00
69836;BME280;57132;51.972;4.450;2022-12-24T03:21:23;100734.38;;;8.35;100.00
69836;BME280;57132;51.972;4.450;2022-12-24T03:23:50;100732.50;;;8.37;100.00
69836;BME280;57132;51.972;4.450;2022-12-24T03:26:17;100724.44;;;8.38;100.00
69836;BME280;57132;51.972;4.450;2022-12-24T03:28:43;100726.16;;;8.40;100.00
69836;BME280;57132;51.972;4.450;2022-12-24T03:31:10;100724.44;;;8.38;100.00
69836;BME280;57132;51.972;4.450;2022-12-24T03:33:36;100727.00;;;8.40;100.00
69836;BME280;57132;51.972;4.450;2022-12-24T03:36:02;100722.53;;;8.41;100.00
69836;BME280;57132;51.972;4.450;2022-12-24T03:38:28;100729.44;;;8.43;100.00
69836;BME280;57132;51.972;4.450;2022-12-24T03:40:53;100728.53;;;8.44;100.00
69836;BME280;57132;51.972;4.450;2022-12-24T03:43:20;100724.06;;;8.45;100.00
69836;BME280;57132;51.972;4.450;2022-12-24T03:45:45;100725.94;;;8.43;100.00
69836;BME280;57132;51.972;4.450;2022-12-24T03:48:10;100722.63;;;8.39;100.00
69836;BME280;57132;51.972;4.450;2022-12-24T03:50:36;100721.06;;;8.35;100.00
69836;BME280;57132;51.972;4.450;2022-12-24T03:53:01;100727.47;;;8.32;100.00
69836;BME280;57132;51.972;4.450;2022-12-24T03:55:27;100720.50;;;8.30;100.00
69836;BME280;57132;51.972;4.450;2022-12-24T03:57:52;100730.97;;;8.33;100.00
69836;BME280;57132;51.972;4.450;2022-12-24T04:00:18;100733.69;;;8.31;100.00
69836;BME280;57132;51.972;4.450;2022-12-24T04:02:43;100732.84;;;8.31;100.00
69836;BME280;57132;51.972;4.450;2022-12-24T04:05:17;100730.00;;;8.34;100.00
69836;BME280;57132;51.972;4.450;2022-12-24T04:07:43;100730.13;;;8.32;100.00
69836;BME280;57132;51.972;4.450;2022-12-24T04:10:09;100750.25;;;8.36;100.00
69836;BME280;57132;51.972;4.450;2022-12-24T04:12:35;100744.84;;;8.38;100.00
69836;BME280;57132;51.972;4.450;2022-12-24T04:15:00;100737.91;;;8.35;100.00
69836;BME280;57132;51.972;4.450;2022-12-24T04:17:26;100741.50;;;8.34;100.00
69836;BME280;57132;51.972;4.450;2022-12-24T04:19:51;100744.09;;;8.36;100.00
69836;BME280;57132;51.972;4.450;2022-12-24T04:22:16;100750.16;;;8.38;100.00
69836;BME280;57132;51.972;4.450;2022-12-24T04:24:42;100759.78;;;8.41;100.00
69836;BME280;57132;51.972;4.450;2022-12-24T04:27:07;100753.31;;;8.45;100.00
69836;BME280;57132;51.972;4.450;2022-12-24T04:29:32;100756.53;;;8.50;100.00
69836;BME280;57132;51.972;4.450;2022-12-24T04:31:58;100761.75;;;8.51;100.00
69836;BME280;57132;51.972;4.450;2022-12-24T04:34:23;100754.63;;;8.52;100.00
69836;BME280;57132;51.972;4.450;2022-12-24T04:36:49;100762.69;;;8.50;100.00
69836;BME280;57132;51.972;4.450;2022-12-24T04:39:14;100770.66;;;8.50;100.00
69836;BME280;57132;51.972;4.450;2022-12-24T04:41:39;100777.72;;;8.51;100.00
69836;BME280;57132;51.972;4.450;2022-12-24T04:44:05;100775.25;;;8.48;100.00
69836;BME280;57132;51.972;4.450;2022-12-24T04:46:30;100777.06;;;8.48;100.00
69836;BME280;57132;51.972;4.450;2022-12-24T04:48:56;100778.94;;;8.46;100.00
69836;BME280;57132;51.972;4.450;2022-12-24T04:51:22;100782.38;;;8.48;100.00
69836;BME280;57132;51.972;4.450;2022-12-24T04:53:48;100788.44;;;8.50;100.00
69836;BME280;57132;51.972;4.450;2022-12-24T04:56:19;100787.47;;;8.51;100.00
69836;BME280;57132;51.972;4.450;2022-12-24T04:58:48;100774.97;;;8.53;100.00
69836;BME280;57132;51.972;4.450;2022-12-24T05:01:20;100787.41;;;8.52;100.00
69836;BME280;57132;51.972;4.450;2022-12-24T05:03:46;100786.16;;;8.58;100.00
69836;BME280;57132;51.972;4.450;2022-12-24T05:06:15;100785.41;;;8.56;100.00
69836;BME280;57132;51.972;4.450;2022-12-24T05:08:41;100796.91;;;8.56;100.00
69836;BME280;57132;51.972;4.450;2022-12-24T05:11:08;100792.53;;;8.55;100.00
69836;BME280;57132;51.972;4.450;2022-12-24T05:13:33;100790.81;;;8.54;100.00
69836;BME280;57132;51.972;4.450;2022-12-24T05:15:59;100802.22;;;8.56;100.00
69836;BME280;57132;51.972;4.450;2022-12-24T05:18:25;100795.28;;;8.54;100.00
69836;BME280;57132;51.972;4.450;2022-12-24T05:20:50;100795.28;;;8.54;100.00
69836;BME280;57132;51.972;4.450;2022-12-24T05:23:21;100801.44;;;8.54;100.00
69836;BME280;57132;51.972;4.450;2022-12-24T05:26:18;100799.56;;;8.56;100.00
69836;BME280;57132;51.972;4.450;2022-12-24T05:28:46;100789.88;;;8.55;100.00
69836;BME280;57132;51.972;4.450;2022-12-24T05:31:12;100791.66;;;8.55;100.00
69836;BME280;57132;51.972;4.450;2022-12-24T05:33:37;100787.13;;;8.57;100.00
69836;BME280;57132;51.972;4.450;2022-12-24T05:36:03;100783.59;;;8.56;100.00
69836;BME280;57132;51.972;4.450;2022-12-24T05:38:28;100788.16;;;8.54;100.00
69836;BME280;57132;51.972;4.450;2022-12-24T05:40:54;100797.88;;;8.55;100.00
69836;BME280;57132;51.972;4.450;2022-12-24T05:43:19;100802.41;;;8.53;100.00
69836;BME280;57132;51.972;4.450;2022-12-24T05:45:45;100811.34;;;8.52;100.00
69836;BME280;57132;51.972;4.450;2022-12-24T05:48:10;100809.44;;;8.54;100.00
69836;BME280;57132;51.972;4.450;2022-12-24T05:50:38;100811.16;;;8.55;100.00
69836;BME280;57132;51.972;4.450;2022-12-24T05:53:04;100809.44;;;8.54;100.00
69836;BME280;57132;51.972;4.450;2022-12-24T05:55:30;100818.75;;;8.47;100.00
69836;BME280;57132;51.972;4.450;2022-12-24T05:57:55;100814.56;;;8.43;100.00
69836;BME280;57132;51.972;4.450;2022-12-24T06:00:20;100822.94;;;8.37;100.00
69836;BME280;57132;51.972;4.450;2022-12-24T06:02:46;100817.94;;;8.31;100.00
69836;BME280;57132;51.972;4.450;2022-12-24T06:05:11;100820.44;;;8.34;100.00
69836;BME280;57132;51.972;4.450;2022-12-24T06:07:37;100826.88;;;8.30;100.00
69836;BME280;57132;51.972;4.450;2022-12-24T06:10:03;100845.50;;;8.30;100.00
69836;BME280;57132;51.972;4.450;2022-12-24T06:12:29;100849.00;;;8.30;100.00
69836;BME280;57132;51.972;4.450;2022-12-24T06:14:54;100854.25;;;8.32;100.00
69836;BME280;57132;51.972;4.450;2022-12-24T06:17:19;100845.91;;;8.24;100.00
69836;BME280;57132;51.972;4.450;2022-12-24T06:19:46;100841.78;;;8.18;100.00
69836;BME280;57132;51.972;4.450;2022-12-24T06:22:17;100850.91;;;8.14;100.00
69836;BME280;57132;51.972;4.450;2022-12-24T06:24:43;100842.34;;;8.09;100.00
69836;BME280;57132;51.972;4.450;2022-12-24T06:27:08;100850.50;;;8.06;100.00
69836;BME280;57132;51.972;4.450;2022-12-24T06:29:34;100854.31;;;8.02;100.00
69836;BME280;57132;51.972;4.450;2022-12-24T06:31:59;100855.31;;;7.99;100.00
69836;BME280;57132;51.972;4.450;2022-12-24T06:34:24;100861.03;;;7.93;100.00
69836;BME280;57132;51.972;4.450;2022-12-24T06:36:50;100857.97;;;7.85;100.00
69836;BME280;57132;51.972;4.450;2022-12-24T06:39:15;100857.13;;;7.84;100.00
69836;BME280;57132;51.972;4.450;2022-12-24T06:41:40;100854.53;;;7.83;100.00
69836;BME280;57132;51.972;4.450;2022-12-24T06:44:08;100855.66;;;7.79;100.00
69836;BME280;57132;51.972;4.450;2022-12-24T06:46:33;100856.78;;;7.75;100.00
69836;BME280;57132;51.972;4.450;2022-12-24T06:48:59;100854.31;;;7.72;100.00
69836;BME280;57132;51.972;4.450;2022-12-24T06:51:24;100854.69;;;7.66;100.00
69836;BME280;57132;51.972;4.450;2022-12-24T06:53:49;100866.44;;;7.61;100.00
69836;BME280;57132;51.972;4.450;2022-12-24T06:56:15;100867.19;;;7.63;100.00
69836;BME280;57132;51.972;4.450;2022-12-24T06:58:41;100871.06;;;7.58;100.00
69836;BME280;57132;51.972;4.450;2022-12-24T07:01:09;100878.25;;;7.56;100.00
69836;BME280;57132;51.972;4.450;2022-12-24T07:03:35;100880.47;;;7.63;100.00
69836;BME280;57132;51.972;4.450;2022-12-24T07:06:01;100889.22;;;7.66;100.00
69836;BME280;57132;51.972;4.450;2022-12-24T07:08:26;100878.50;;;7.67;100.00
69836;BME280;57132;51.972;4.450;2022-12-24T07:10:52;100884.59;;;7.69;100.00
69836;BME280;57132;51.972;4.450;2022-12-24T07:13:19;100879.56;;;7.79;100.00
69836;BME280;57132;51.972;4.450;2022-12-24T07:15:44;100883.69;;;7.84;100.00
69836;BME280;57132;51.972;4.450;2022-12-24T07:18:10;100885.56;;;7.82;100.00
69836;BME280;57132;51.972;4.450;2022-12-24T07:20:36;100883.88;;;7.81;100.00
69836;BME280;57132;51.972;4.450;2022-12-24T07:23:02;100887.28;;;7.83;100.00
69836;BME280;57132;51.972;4.450;2022-12-24T07:25:28;100900.50;;;7.85;100.00
69836;BME280;57132;51.972;4.450;2022-12-24T07:27:53;100908.09;;;7.91;100.00
69836;BME280;57132;51.972;4.450;2022-12-24T07:30:19;100915.78;;;7.96;100.00
69836;BME280;57132;51.972;4.450;2022-12-24T07:32:44;100915.59;;;7.99;100.00
69836;BME280;57132;51.972;4.450;2022-12-24T07:35:10;100913.63;;;8.02;100.00
69836;BME280;57132;51.972;4.450;2022-12-24T07:37:36;100923.25;;;8.05;100.00
69836;BME280;57132;51.972;4.450;2022-12-24T07:40:02;100931.13;;;8.06;100.00
69836;BME280;57132;51.972;4.450;2022-12-24T07:42:30;100935.22;;;8.12;100.00
69836;BME280;57132;51.972;4.450;2022-12-24T07:44:55;100940.63;;;8.10;100.00
69836;BME280;57132;51.972;4.450;2022-12-24T07:47:21;100938.81;;;8.11;100.00
69836;BME280;57132;51.972;4.450;2022-12-24T07:49:46;100947.63;;;8.11;100.00
69836;BME280;57132;51.972;4.450;2022-12-24T07:52:12;100947.06;;;8.06;100.00
69836;BME280;57132;51.972;4.450;2022-12-24T07:54:37;100950.09;;;8.00;100.00
69836;BME280;57132;51.972;4.450;2022-12-24T07:57:02;100969.63;;;7.99;100.00
69836;BME280;57132;51.972;4.450;2022-12-24T07:59:28;100970.41;;;8.01;100.00
69836;BME280;57132;51.972;4.450;2022-12-24T08:01:53;100975.91;;;7.98;100.00
69836;BME280;57132;51.972;4.450;2022-12-24T08:04:18;100977.81;;;7.96;100.00
69836;BME280;57132;51.972;4.450;2022-12-24T08:06:44;100979.34;;;8.00;100.00
69836;BME280;57132;51.972;4.450;2022-12-24T08:09:09;100976.75;;;7.99;100.00
69836;BME280;57132;51.972;4.450;2022-12-24T08:11:34;100980.09;;;8.02;100.00
69836;BME280;57132;51.972;4.450;2022-12-24T08:14:00;100979.13;;;8.03;100.00
69836;BME280;57132;51.972;4.450;2022-12-24T08:16:28;100987.31;;;8.00;100.00
69836;BME280;57132;51.972;4.450;2022-12-24T08:18:53;100990.72;;;8.02;100.00
69836;BME280;57132;51.972;4.450;2022-12-24T08:21:18;100995.09;;;8.03;100.00
69836;BME280;57132;51.972;4.450;2022-12-24T08:23:45;101000.91;;;8.10;100.00
69836;BME280;57132;51.972;4.450;2022-12-24T08:26:11;101012.22;;;8.13;100.00
69836;BME280;57132;51.972;4.450;2022-12-24T08:28:36;101004.09;;;8.17;100.00
69836;BME280;57132;51.972;4.450;2022-12-24T08:31:02;101018.91;;;8.21;100.00
69836;BME280;57132;51.972;4.450;2022-12-24T08:33:27;101014.28;;;8.24;100.00
69836;BME280;57132;51.972;4.450;2022-12-24T08:35:54;101029.09;;;8.28;100.00
69836;BME280;57132;51.972;4.450;2022-12-24T08:38:20;101026.91;;;8.35;100.00
69836;BME280;57132;51.972;4.450;2022-12-24T08:40:46;101028.59;;;8.37;100.00
69836;BME280;57132;51.972;4.450;2022-12-24T08:43:16;101031.81;;;8.43;100.00
69836;BME280;57132;51.972;4.450;2022-12-24T08:45:41;101039.53;;;8.47;100.00
69836;BME280;57132;51.972;4.450;2022-12-24T08:48:08;101031.47;;;8.49;100.00
69836;BME280;57132;51.972;4.450;2022-12-24T08:50:34;101047.34;;;8.50;100.00
69836;BME280;57132;51.972;4.450;2022-12-24T08:53:00;101048.00;;;8.54;100.00
69836;BME280;57132;51.972;4.450;2022-12-24T08:55:25;101043.38;;;8.57;100.00
69836;BME280;57132;51.972;4.450;2022-12-24T08:57:50;101049.38;;;8.61;100.00
69836;BME280;57132;51.972;4.450;2022-12-24T09:00:16;101057.88;;;8.68;100.00
69836;BME280;57132;51.972;4.450;2022-12-24T09:02:42;101061.19;;;8.71;100.00
69836;BME280;57132;51.972;4.450;2022-12-24T09:05:07;101059.66;;;8.67;100.00
69836;BME280;57132;51.972;4.450;2022-12-24T09:07:33;101061.66;;;8.64;100.00
69836;BME280;57132;51.972;4.450;2022-12-24T09:09:58;101062.41;;;8.66;100.00
69836;BME280;57132;51.972;4.450;2022-12-24T09:12:23;101054.59;;;8.62;100.00
69836;BME280;57132;51.972;4.450;2022-12-24T09:14:50;101065.00;;;8.67;100.00
69836;BME280;57132;51.972;4.450;2022-12-24T09:17:16;101060.59;;;8.66;100.00
69836;BME280;57132;51.972;4.450;2022-12-24T09:19:41;101066.88;;;8.65;100.00
69836;BME280;57132;51.972;4.450;2022-12-24T09:22:07;101075.81;;;8.64;100.00
69836;BME280;57132;51.972;4.450;2022-12-24T09:24:32;101086.34;;;8.66;100.00
69836;BME280;57132;51.972;4.450;2022-12-24T09:26:57;101090.72;;;8.67;100.00
69836;BME280;57132;51.972;4.450;2022-12-24T09:29:24;101096.13;;;8.65;100.00
69836;BME280;57132;51.972;4.450;2022-12-24T09:31:49;101096.81;;;8.69;100.00
69836;BME280;57132;51.972;4.450;2022-12-24T09:34:15;101104.63;;;8.72;100.00
69836;BME280;57132;51.972;4.450;2022-12-24T09:36:40;101101.75;;;8.75;100.00
69836;BME280;57132;51.972;4.450;2022-12-24T09:39:06;101089.06;;;8.80;100.00
69836;BME280;57132;51.972;4.450;2022-12-24T09:41:46;101108.84;;;8.90;100.00
69836;BME280;57132;51.972;4.450;2022-12-24T09:44:19;101096.31;;;8.92;100.00
69836;BME280;57132;51.972;4.450;2022-12-24T09:46:48;101109.06;;;9.01;100.00
69836;BME280;57132;51.972;4.450;2022-12-24T09:49:31;101111.56;;;9.04;100.00
69836;BME280;57132;51.972;4.450;2022-12-24T09:52:04;101107.75;;;9.08;100.00
69836;BME280;57132;51.972;4.450;2022-12-24T09:54:37;101111.84;;;9.14;100.00
69836;BME280;57132;51.972;4.450;2022-12-24T09:57:11;101125.44;;;9.09;100.00
69836;BME280;57132;51.972;4.450;2022-12-24T09:59:41;101130.78;;;9.09;100.00
69836;BME280;57132;51.972;4.450;2022-12-24T10:02:15;101123.56;;;9.11;100.00
69836;BME280;57132;51.972;4.450;2022-12-24T10:04:42;101132.47;;;9.10;100.00
69836;BME280;57132;51.972;4.450;2022-12-24T10:15:50;101128.13;;;9.24;100.00
69836;BME280;57132;51.972;4.450;2022-12-24T10:20:55;101124.25;;;9.72;100.00
69836;BME280;57132;51.972;4.450;2022-12-24T10:23:37;101124.69;;;9.93;100.00
69836;BME280;57132;51.972;4.450;2022-12-24T10:29:01;101142.97;;;10.82;100.00
69836;BME280;57132;51.972;4.450;2022-12-24T10:34:19;101147.63;;;11.18;100.00
69836;BME280;57132;51.972;4.450;2022-12-24T10:36:46;101150.75;;;11.25;100.00
69836;BME280;57132;51.972;4.450;2022-12-24T10:39:20;101162.81;;;10.78;100.00
69836;BME280;57132;51.972;4.450;2022-12-24T10:41:49;101162.34;;;10.44;100.00
69836;BME280;57132;51.972;4.450;2022-12-24T10:44:18;101159.63;;;10.17;100.00
69836;BME280;57132;51.972;4.450;2022-12-24T10:46:45;101161.28;;;9.91;100.00
69836;BME280;57132;51.972;4.450;2022-12-24T10:49:14;101162.53;;;9.71;100.00
69836;BME280;57132;51.972;4.450;2022-12-24T10:51:55;101150.72;;;9.75;100.00
69836;BME280;57132;51.972;4.450;2022-12-24T10:54:25;101163.00;;;9.92;100.00
69836;BME280;57132;51.972;4.450;2022-12-24T10:56:55;101154.19;;;10.19;100.00
69836;BME280;57132;51.972;4.450;2022-12-24T10:59:24;101157.22;;;10.41;100.00
69836;BME280;57132;51.972;4.450;2022-12-24T11:01:51;101151.28;;;10.50;100.00
69836;BME280;57132;51.972;4.450;2022-12-24T11:04:23;101161.19;;;10.48;100.00
69836;BME280;57132;51.972;4.450;2022-12-24T11:07:01;101175.25;;;10.38;100.00
69836;BME280;57132;51.972;4.450;2022-12-24T11:09:30;101161.63;;;10.42;100.00
69836;BME280;57132;51.972;4.450;2022-12-24T11:11:57;101163.66;;;10.51;100.00
69836;BME280;57132;51.972;4.450;2022-12-24T11:14:23;101162.00;;;10.63;100.00
69836;BME280;57132;51.972;4.450;2022-12-24T11:16:54;101164.56;;;10.65;100.00
69836;BME280;57132;51.972;4.450;2022-12-24T11:19:31;101154.16;;;10.47;100.00
69836;BME280;57132;51.972;4.450;2022-12-24T11:22:01;101161.84;;;10.52;100.00
69836;BME280;57132;51.972;4.450;2022-12-24T11:24:30;101166.22;;;10.80;100.00
69836;BME280;57132;51.972;4.450;2022-12-24T11:29:47;101164.06;;;11.12;100.00
69836;BME280;57132;51.972;4.450;2022-12-24T11:32:19;101168.75;;;11.08;100.00
69836;BME280;57132;51.972;4.450;2022-12-24T11:34:45;101172.31;;;11.22;100.00
69836;BME280;57132;51.972;4.450;2022-12-24T11:39:49;101186.72;;;11.06;100.00
69836;BME280;57132;51.972;4.450;2022-12-24T11:44:54;101180.38;;;10.95;100.00
69836;BME280;57132;51.972;4.450;2022-12-24T11:53:17;101177.53;;;11.11;100.00
69836;BME280;57132;51.972;4.450;2022-12-24T11:55:56;101190.13;;;11.08;100.00
69836;BME280;57132;51.972;4.450;2022-12-24T11:58:47;101188.91;;;10.87;100.00
69836;BME280;57132;51.972;4.450;2022-12-24T12:03:50;101195.59;;;11.20;100.00
69836;BME280;57132;51.972;4.450;2022-12-24T12:08:56;101193.91;;;11.19;100.00
69836;BME280;57132;51.972;4.450;2022-12-24T12:11:22;101191.38;;;10.90;100.00
69836;BME280;57132;51.972;4.450;2022-12-24T12:13:49;101190.44;;;10.77;100.00
69836;BME280;57132;51.972;4.450;2022-12-24T12:16:56;101198.66;;;10.47;100.00
69836;BME280;57132;51.972;4.450;2022-12-24T12:19:30;101198.25;;;10.26;100.00
69836;BME280;57132;51.972;4.450;2022-12-24T12:21:57;101196.50;;;10.25;100.00
69836;BME280;57132;51.972;4.450;2022-12-24T12:24:25;101213.25;;;10.41;100.00
69836;BME280;57132;51.972;4.450;2022-12-24T12:27:18;101211.09;;;10.61;100.00
69836;BME280;57132;51.972;4.450;2022-12-24T12:29:49;101221.41;;;10.67;100.00
69836;BME280;57132;51.972;4.450;2022-12-24T12:32:32;101227.78;;;10.64;100.00
69836;BME280;57132;51.972;4.450;2022-12-24T12:35:30;101213.84;;;10.73;100.00
69836;BME280;57132;51.972;4.450;2022-12-24T12:38:01;101211.59;;;11.07;100.00
69836;BME280;57132;51.972;4.450;2022-12-24T12:45:57;101228.25;;;12.40;92.90
69836;BME280;57132;51.972;4.450;2022-12-24T12:51:18;101231.13;;;11.35;97.42
69836;BME280;57132;51.972;4.450;2022-12-24T12:54:15;101235.47;;;10.83;100.00
69836;BME280;57132;51.972;4.450;2022-12-24T12:56:47;101226.88;;;10.51;100.00
69836;BME280;57132;51.972;4.450;2022-12-24T12:59:22;101221.56;;;10.22;100.00
69836;BME280;57132;51.972;4.450;2022-12-24T13:02:00;101228.88;;;10.04;100.00
69836;BME280;57132;51.972;4.450;2022-12-24T13:04:54;101231.56;;;10.04;100.00
69836;BME280;57132;51.972;4.450;2022-12-24T13:20:44;101256.63;;;11.53;97.18
69836;BME280;57132;51.972;4.450;2022-12-24T13:23:11;101250.31;;;11.67;98.12
69836;BME280;57132;51.972;4.450;2022-12-24T13:25:40;101260.69;;;11.71;96.49
69836;BME280;57132;51.972;4.450;2022-12-24T13:28:30;101254.69;;;11.55;97.97
69836;BME280;57132;51.972;4.450;2022-12-24T13:33:58;101249.81;;;11.22;99.80
69836;BME280;57132;51.972;4.450;2022-12-24T13:36:23;101258.59;;;10.97;100.00
69836;BME280;57132;51.972;4.450;2022-12-24T13:38:55;101259.00;;;10.91;100.00
69836;BME280;57132;51.972;4.450;2022-12-24T13:49:42;101264.66;;;10.72;100.00
69836;BME280;57132;51.972;4.450;2022-12-24T13:54:41;101266.63;;;10.55;100.00
69836;BME280;57132;51.972;4.450;2022-12-24T13:59:56;101271.00;;;10.56;100.00
69836;BME280;57132;51.972;4.450;2022-12-24T14:02:22;101268.97;;;10.60;100.00
69836;BME280;57132;51.972;4.450;2022-12-24T14:04:49;101270.53;;;10.50;100.00
69836;BME280;57132;51.972;4.450;2022-12-24T14:07:17;101270.25;;;10.54;100.00
69836;BME280;57132;51.972;4.450;2022-12-24T14:09:48;101270.84;;;10.45;100.00
69836;BME280;57132;51.972;4.450;2022-12-24T14:12:44;101264.84;;;10.42;100.00
69836;BME280;57132;51.972;4.450;2022-12-24T14:18:17;101269.28;;;10.13;100.00
69836;BME280;57132;51.972;4.450;2022-12-24T14:20:48;101267.38;;;10.00;100.00
69836;BME280;57132;51.972;4.450;2022-12-24T14:23:43;101258.88;;;9.94;100.00
69836;BME280;57132;51.972;4.450;2022-12-24T14:26:17;101266.59;;;9.84;100.00
69836;BME280;57132;51.972;4.450;2022-12-24T14:28:55;101272.22;;;9.79;100.00
69836;BME280;57132;51.972;4.450;2022-12-24T14:31:22;101280.88;;;9.83;100.00
69836;BME280;57132;51.972;4.450;2022-12-24T14:33:48;101274.59;;;9.84;100.00